Time;durP1;ratioP1;P1;durP2;ratioP2;P2;SDS_P1;SDS_P2;PMS_P1;PMS_P2;Temp;Humidity;BMP_temperature;BMP_pressure;BME280_temperature;BME280_humidity;BME280_pressure;Samples;Min_cycle;Max_cycle;Signal;HPM_P1;HPM_P2
2023/12/14 00:01:00;;;;;;;35.30;18.50;;;;;;;3.15;100.00;99618.49;105546;1262;99177;-77
2023/12/14 00:03:46;;;;;;;33.90;17.50;;;;;;;3.15;100.00;99618.54;105607;1264;102687;-76
2023/12/14 00:06:32;;;;;;;34.90;17.60;;;;;;;3.15;100.00;99620.82;105519;1261;99130;-77
2023/12/14 00:09:17;;;;;;;38.40;18.80;;;;;;;3.15;100.00;99623.30;105383;1259;98072;-76
2023/12/14 00:12:02;;;;;;;33.20;17.50;;;;;;;3.13;100.00;99629.11;105454;1259;97936;-77
2023/12/14 00:14:48;;;;;;;31.00;16.80;;;;;;;3.10;100.00;99629.54;105684;1262;96240;-76
2023/12/14 00:17:34;;;;;;;34.20;17.80;;;;;;;3.11;100.00;99632.26;105593;1262;101682;-76
2023/12/14 00:20:20;;;;;;;31.90;16.90;;;;;;;3.11;100.00;99635.33;105690;1258;100448;-77
2023/12/14 00:23:05;;;;;;;30.90;17.90;;;;;;;3.13;100.00;99642.67;105621;1259;98385;-77
2023/12/14 00:25:51;;;;;;;33.60;17.70;;;;;;;3.13;100.00;99644.83;105564;1259;97967;-76
2023/12/14 00:28:36;;;;;;;28.70;16.00;;;;;;;3.10;100.00;99645.23;105526;1259;97929;-77
2023/12/14 00:31:22;;;;;;;31.10;15.90;;;;;;;3.09;100.00;99650.15;105606;1260;101366;-77
2023/12/14 00:34:07;;;;;;;29.50;16.70;;;;;;;3.08;100.00;99648.80;105571;1260;99099;-77
2023/12/14 00:36:53;;;;;;;29.90;15.70;;;;;;;3.09;100.00;99656.18;105533;1262;99184;-77
2023/12/14 00:39:38;;;;;;;30.40;16.50;;;;;;;3.08;100.00;99658.89;105471;1264;97877;-76
2023/12/14 00:42:24;;;;;;;29.90;17.20;;;;;;;3.08;100.00;99658.56;105487;1262;97971;-76
2023/12/14 00:45:10;;;;;;;27.70;15.30;;;;;;;3.06;100.00;99660.91;105543;1259;101383;-77
2023/12/14 00:47:55;;;;;;;31.10;16.90;;;;;;;3.06;100.00;99666.04;105605;1258;100362;-77
2023/12/14 00:50:41;;;;;;;29.00;15.80;;;;;;;3.06;100.00;99671.52;105485;1262;98814;-77
2023/12/14 00:53:26;;;;;;;27.10;14.90;;;;;;;3.06;100.00;99671.52;105599;1262;98882;-77
2023/12/14 00:56:12;;;;;;;26.50;14.50;;;;;;;3.05;100.00;99672.48;105578;1262;97970;-76
2023/12/14 00:58:57;;;;;;;28.40;15.60;;;;;;;3.05;100.00;99675.42;105515;1258;102691;-76
2023/12/14 01:01:43;;;;;;;28.50;15.40;;;;;;;3.06;100.00;99672.91;105557;1258;99120;-77
2023/12/14 01:04:29;;;;;;;24.10;13.30;;;;;;;3.05;100.00;99669.58;105472;1261;98963;-77
2023/12/14 01:07:14;;;;;;;25.20;13.90;;;;;;;3.04;100.00;99669.70;105555;1262;98073;-77
2023/12/14 01:09:59;;;;;;;23.30;13.60;;;;;;;3.05;100.00;99669.51;105602;1259;98454;-77
2023/12/14 01:12:45;;;;;;;23.70;14.20;;;;;;;3.02;100.00;99671.71;105672;1258;102170;-79
2023/12/14 01:15:31;;;;;;;25.80;13.80;;;;;;;2.99;100.00;99671.83;105516;1260;99479;-77
2023/12/14 01:18:17;;;;;;;23.90;14.00;;;;;;;3.00;100.00;99674.79;105733;1259;97912;-78
2023/12/14 01:21:02;;;;;;;21.70;13.20;;;;;;;3.00;100.00;99675.51;105297;1264;98028;-76
2023/12/14 01:23:49;;;;;;;20.60;12.70;;;;;;;2.99;100.00;99673.61;105608;1259;97980;-78
2023/12/14 01:26:34;;;;;;;22.20;14.10;;;;;;;2.96;100.00;99670.38;105646;1262;103280;-76
2023/12/14 01:29:20;;;;;;;21.50;11.40;;;;;;;2.94;100.00;99670.30;105596;1259;100072;-78
2023/12/14 01:32:05;;;;;;;21.20;13.20;;;;;;;2.90;100.00;99667.68;105533;1259;97925;-77
2023/12/14 01:34:51;;;;;;;19.20;12.00;;;;;;;2.89;100.00;99669.09;105633;1262;99259;-77
2023/12/14 01:37:37;;;;;;;20.30;11.50;;;;;;;2.87;100.00;99668.09;105436;1264;98097;-78
2023/12/14 01:40:22;;;;;;;20.90;11.80;;;;;;;2.85;100.00;99674.10;105378;1266;101432;-76
2023/12/14 01:43:10;;;;;;;17.60;10.80;;;;;;;2.83;100.00;99676.05;105685;1258;100620;-77
2023/12/14 01:45:56;;;;;;;20.40;12.20;;;;;;;2.81;100.00;99678.33;105424;1263;97983;-77
2023/12/14 01:48:42;;;;;;;20.30;11.50;;;;;;;2.82;100.00;99676.70;105620;1262;98053;-77
2023/12/14 01:51:27;;;;;;;17.80;11.70;;;;;;;2.81;100.00;99673.42;105576;1258;98333;-78
2023/12/14 01:54:13;;;;;;;16.90;10.50;;;;;;;2.82;100.00;99674.26;105526;1262;101417;-78
2023/12/14 01:56:59;;;;;;;18.20;10.90;;;;;;;2.82;100.00;99671.69;105310;1262;99985;-77
2023/12/14 01:59:45;;;;;;;22.50;11.00;;;;;;;2.82;100.00;99667.75;105517;1259;98298;-76
2023/12/14 02:02:30;;;;;;;16.50;10.70;;;;;;;2.81;100.00;99665.50;105426;1259;97977;-77
2023/12/14 02:05:16;;;;;;;19.20;10.90;;;;;;;2.80;100.00;99664.54;105633;1259;98410;-78
2023/12/14 02:08:01;;;;;;;23.80;11.70;;;;;;;2.79;100.00;99664.47;105374;1260;101345;-77
2023/12/14 02:10:48;;;;;;;15.60;9.70;;;;;;;2.79;100.00;99669.83;105688;1262;99080;-77
2023/12/14 02:13:34;;;;;;;20.60;11.40;;;;;;;2.76;100.00;99667.83;105500;1259;98868;-78
2023/12/14 02:16:19;;;;;;;16.00;10.40;;;;;;;2.74;100.00;99667.28;105609;1262;97971;-78
2023/12/14 02:19:05;;;;;;;17.90;10.60;;;;;;;2.74;100.00;99665.73;105591;1259;97953;-77
2023/12/14 02:21:50;;;;;;;15.50;10.10;;;;;;;2.73;100.00;99662.13;105647;1262;102552;-78
2023/12/14 02:24:36;;;;;;;19.40;11.20;;;;;;;2.72;100.00;99662.79;105512;1259;99087;-77
2023/12/14 02:27:22;;;;;;;18.10;11.20;;;;;;;2.72;100.00;99661.23;105524;1262;98977;-76
2023/12/14 02:30:08;;;;;;;19.10;10.30;;;;;;;2.73;100.00;99659.32;105468;1262;97989;-77
2023/12/14 02:32:54;;;;;;;19.60;11.50;;;;;;;2.72;100.00;99657.45;105698;1262;98044;-76
2023/12/14 02:35:40;;;;;;;17.80;10.70;;;;;;;2.73;100.00;99662.16;105496;1262;102138;-77
2023/12/14 02:38:26;;;;;;;17.70;10.60;;;;;;;2.72;100.00;99663.28;105550;1262;100404;-77
2023/12/14 02:41:11;;;;;;;19.10;10.90;;;;;;;2.72;100.00;99663.60;105479;1261;98629;-76
2023/12/14 02:43:57;;;;;;;19.30;11.70;;;;;;;2.72;100.00;99666.79;105550;1258;98847;-76
2023/12/14 02:46:42;;;;;;;19.70;10.50;;;;;;;2.73;100.00;99666.13;105486;1262;98299;-76
2023/12/14 02:49:28;;;;;;;21.50;12.20;;;;;;;2.74;100.00;99667.84;105522;1259;101446;-78
2023/12/14 02:52:14;;;;;;;21.30;12.30;;;;;;;2.75;100.00;99672.71;105624;1259;99188;-77
2023/12/14 02:54:59;;;;;;;18.70;12.00;;;;;;;2.76;100.00;99672.02;105611;1258;99102;-78
2023/12/14 02:57:45;;;;;;;20.90;11.40;;;;;;;2.77;100.00;99672.33;105792;1259;97913;-77
2023/12/14 03:00:31;;;;;;;20.60;12.60;;;;;;;2.76;100.00;99675.20;105565;1263;97949;-77
2023/12/14 03:03:16;;;;;;;18.50;11.70;;;;;;;2.75;100.00;99677.91;105552;1260;101391;-78
2023/12/14 03:06:02;;;;;;;24.40;13.10;;;;;;;2.75;100.00;99679.71;105669;1261;99249;-77
2023/12/14 03:08:47;;;;;;;20.00;11.80;;;;;;;2.74;100.00;99677.84;105635;1264;97980;-78
2023/12/14 03:11:33;;;;;;;21.00;11.90;;;;;;;2.74;100.00;99680.54;105557;1259;97951;-78
2023/12/14 03:14:19;;;;;;;20.50;13.00;;;;;;;2.75;100.00;99688.57;105608;1258;98517;-78
2023/12/14 03:17:06;;;;;;;24.10;13.50;;;;;;;2.77;100.00;99687.84;105689;1262;101527;-78
2023/12/14 03:19:52;;;;;;;19.80;12.30;;;;;;;2.76;100.00;99687.88;105504;1263;99197;-77
2023/12/14 03:22:38;;;;;;;17.20;11.40;;;;;;;2.74;100.00;99690.96;105508;1263;97987;-78
2023/12/14 03:25:23;;;;;;;22.90;13.10;;;;;;;2.74;100.00;99694.26;105595;1259;97882;-77
2023/12/14 03:28:09;;;;;;;21.80;12.20;;;;;;;2.75;100.00;99693.09;105655;1259;96271;-77
2023/12/14 03:30:55;;;;;;;21.20;12.50;;;;;;;2.77;100.00;99694.67;105662;1262;101440;-78
2023/12/14 03:33:42;;;;;;;22.40;12.80;;;;;;;2.75;100.00;99694.20;105515;1259;99238;-78
2023/12/14 03:36:28;;;;;;;21.80;11.90;;;;;;;2.75;100.00;99703.14;105607;1259;98721;-77
2023/12/14 03:39:13;;;;;;;23.80;13.60;;;;;;;2.77;100.00;99707.70;105677;1259;98085;-78
2023/12/14 03:41:58;;;;;;;23.40;13.20;;;;;;;2.79;100.00;99708.92;105440;1262;97904;-77
2023/12/14 03:44:44;;;;;;;21.70;12.60;;;;;;;2.78;100.00;99712.92;105486;1262;101913;-77
2023/12/14 03:47:30;;;;;;;22.80;12.60;;;;;;;2.77;100.00;99718.27;105485;1259;100912;-77
2023/12/14 03:50:15;;;;;;;23.10;14.10;;;;;;;2.78;100.00;99718.24;105711;1262;99053;-78
2023/12/14 03:53:01;;;;;;;23.80;13.00;;;;;;;2.77;100.00;99719.55;105621;1262;99159;-77
2023/12/14 03:55:47;;;;;;;23.10;13.20;;;;;;;2.76;100.00;99724.39;105904;1259;99330;-78
2023/12/14 03:58:32;;;;;;;23.40;13.70;;;;;;;2.78;100.00;99729.31;105923;1259;102646;-78
2023/12/14 04:01:20;;;;;;;26.40;14.50;;;;;;;2.78;100.00;99731.37;105559;1262;100406;-77
2023/12/14 04:04:06;;;;;;;26.50;14.40;;;;;;;2.79;100.00;99731.70;105634;1262;98090;-76
2023/12/14 04:06:51;;;;;;;27.20;15.30;;;;;;;2.80;100.00;99735.64;105540;1262;98080;-76
2023/12/14 04:09:37;;;;;;;27.50;15.60;;;;;;;2.81;100.00;99739.77;105490;1259;98495;-77
2023/12/14 04:12:23;;;;;;;24.40;14.50;;;;;;;2.82;100.00;99744.77;105199;1265;102213;-76
2023/12/14 04:15:09;;;;;;;28.50;15.20;;;;;;;2.82;100.00;99744.44;105533;1262;99312;-77
2023/12/14 04:17:55;;;;;;;27.40;15.50;;;;;;;2.83;100.00;99746.23;105278;1263;98011;-77
2023/12/14 04:20:40;;;;;;;29.60;15.20;;;;;;;2.83;100.00;99745.89;105469;1262;98463;-75
2023/12/14 04:23:26;;;;;;;29.70;15.50;;;;;;;2.82;100.00;99747.38;105501;1262;98671;-76
2023/12/14 04:26:14;;;;;;;24.30;13.80;;;;;;;2.81;100.00;99745.33;105478;1262;101349;-77
2023/12/14 04:29:00;;;;;;;27.80;14.90;;;;;;;2.82;100.00;99747.09;105234;1259;99247;-77
2023/12/14 04:31:45;;;;;;;25.20;14.80;;;;;;;2.79;100.00;99744.39;105458;1262;98607;-77
2023/12/14 04:34:31;;;;;;;26.80;14.70;;;;;;;2.74;100.00;99747.27;105390;1259;98003;-76
2023/12/14 04:37:17;;;;;;;28.30;15.50;;;;;;;2.74;100.00;99747.01;105504;1262;98559;-77
2023/12/14 04:40:03;;;;;;;29.30;15.00;;;;;;;2.73;100.00;99753.77;105669;1262;102782;-76
2023/12/14 04:42:48;;;;;;;24.60;14.10;;;;;;;2.70;100.00;99756.21;105574;1259;99139;-77
2023/12/14 04:45:35;;;;;;;29.40;15.20;;;;;;;2.68;100.00;99757.10;105551;1262;98972;-78
2023/12/14 04:48:21;;;;;;;31.40;16.50;;;;;;;2.69;100.00;99762.29;105596;1258;98051;-78
2023/12/14 04:51:11;;;;;;;34.30;17.10;;;;;;;2.69;100.00;99767.75;105305;1261;98815;-78
2023/12/14 04:53:56;;;;;;;31.80;17.30;;;;;;;2.70;100.00;99771.41;105621;1262;101369;-77
2023/12/14 04:56:46;;;;;;;29.20;15.10;;;;;;;2.70;100.00;99775.79;105623;1259;99183;-77
2023/12/14 04:59:31;;;;;;;38.80;17.40;;;;;;;2.69;100.00;99787.38;105557;1262;97987;-77
2023/12/14 05:02:17;;;;;;;36.20;17.10;;;;;;;2.67;100.00;99788.98;105632;1259;98031;-78
2023/12/14 05:05:03;;;;;;;33.60;17.50;;;;;;;2.68;100.00;99796.45;105722;1259;98000;-77
2023/12/14 05:07:49;;;;;;;33.40;17.00;;;;;;;2.70;100.00;99798.58;105540;1262;101368;-76
2023/12/14 05:10:34;;;;;;;31.50;16.50;;;;;;;2.70;100.00;99802.95;105595;1259;100386;-77
2023/12/14 05:13:20;;;;;;;36.80;17.60;;;;;;;2.71;100.00;99808.71;105635;1262;97875;-77
2023/12/14 05:16:07;;;;;;;33.70;17.10;;;;;;;2.70;100.00;99810.85;105554;1262;98060;-77
2023/12/14 05:18:53;;;;;;;36.50;18.60;;;;;;;2.69;100.00;99810.81;105516;1259;98465;-77
2023/12/14 05:21:39;;;;;;;31.40;17.10;;;;;;;2.67;100.00;99816.14;105367;1261;102621;-77
2023/12/14 05:24:24;;;;;;;31.20;16.80;;;;;;;2.68;100.00;99818.14;105262;1259;99288;-77
2023/12/14 05:27:10;;;;;;;38.20;19.10;;;;;;;2.67;100.00;99822.43;105486;1258;97725;-77
2023/12/14 05:29:55;;;;;;;35.10;17.80;;;;;;;2.67;100.00;99823.16;105457;1259;98848;-76
2023/12/14 05:32:41;;;;;;;36.20;17.30;;;;;;;2.69;100.00;99828.66;105456;1259;99662;-77
2023/12/14 05:35:27;;;;;;;41.00;19.30;;;;;;;2.68;100.00;99833.08;105465;1259;103483;-77
2023/12/14 05:38:13;;;;;;;37.40;18.20;;;;;;;2.69;100.00;99837.59;105494;1262;100585;-77
2023/12/14 05:40:58;;;;;;;42.00;19.20;;;;;;;2.72;100.00;99842.50;105411;1260;98447;-76
2023/12/14 05:43:44;;;;;;;44.70;20.80;;;;;;;2.75;100.00;99846.88;105358;1259;97841;-77
2023/12/14 05:46:29;;;;;;;41.50;20.40;;;;;;;2.77;100.00;99856.02;105437;1259;97842;-76
2023/12/14 05:49:15;;;;;;;40.30;20.30;;;;;;;2.78;100.00;99857.83;105599;1262;102651;-78
2023/12/14 05:52:01;;;;;;;37.50;18.20;;;;;;;2.79;100.00;99858.43;105570;1259;99092;-77
2023/12/14 05:54:47;;;;;;;41.10;19.90;;;;;;;2.77;100.00;99859.83;105601;1259;97981;-77
2023/12/14 05:57:32;;;;;;;45.00;21.50;;;;;;;2.78;100.00;99862.17;105631;1259;98067;-77
2023/12/14 06:00:18;;;;;;;37.90;19.20;;;;;;;2.79;100.00;99866.32;105396;1258;97976;-77
2023/12/14 06:03:04;;;;;;;44.70;20.80;;;;;;;2.80;100.00;99868.40;105535;1259;101358;-77
2023/12/14 06:05:50;;;;;;;40.90;19.20;;;;;;;2.81;100.00;99872.00;105495;1262;100802;-77
2023/12/14 06:08:36;;;;;;;44.30;20.60;;;;;;;2.82;100.00;99871.69;105493;1262;99710;-77
2023/12/14 06:11:21;;;;;;;40.80;20.40;;;;;;;2.83;100.00;99870.20;105532;1259;97959;-76
2023/12/14 06:14:07;;;;;;;48.20;21.50;;;;;;;2.81;100.00;99873.33;105470;1259;98418;-76
2023/12/14 06:16:52;;;;;;;45.10;20.40;;;;;;;2.76;100.00;99878.65;105319;1262;102680;-77
2023/12/14 06:19:38;;;;;;;46.90;21.50;;;;;;;2.71;100.00;99884.23;105382;1259;99464;-77
2023/12/14 06:22:24;;;;;;;51.50;22.10;;;;;;;2.67;100.00;99884.48;105392;1262;98872;-77
2023/12/14 06:25:09;;;;;;;45.40;20.50;;;;;;;2.63;100.00;99887.34;105403;1262;99238;-76
2023/12/14 06:27:55;;;;;;;46.80;20.90;;;;;;;2.60;100.00;99892.30;105233;1264;98034;-77
2023/12/14 06:30:40;;;;;;;47.40;20.80;;;;;;;2.56;100.00;99896.33;105468;1262;102677;-77
2023/12/14 06:33:26;;;;;;;47.90;21.10;;;;;;;2.56;100.00;99897.23;105452;1262;101271;-76
2023/12/14 06:36:12;;;;;;;42.90;20.10;;;;;;;2.57;100.00;99903.16;105445;1259;98808;-77
2023/12/14 06:38:59;;;;;;;46.40;21.60;;;;;;;2.55;100.00;99911.27;105417;1262;97996;-76
2023/12/14 06:41:45;;;;;;;39.80;19.40;;;;;;;2.53;100.00;99915.58;105278;1259;97935;-76
2023/12/14 06:44:31;;;;;;;45.60;21.20;;;;;;;2.51;100.00;99918.38;105555;1262;101389;-77
2023/12/14 06:47:16;;;;;;;44.10;19.30;;;;;;;2.52;100.00;99922.52;105560;1259;99153;-77
2023/12/14 06:50:02;;;;;;;43.10;18.50;;;;;;;2.52;100.00;99922.14;105490;1259;98839;-77
2023/12/14 06:52:48;;;;;;;40.80;19.30;;;;;;;2.52;100.00;99923.42;105413;1262;98035;-77
2023/12/14 06:55:33;;;;;;;41.90;19.90;;;;;;;2.52;100.00;99926.60;105483;1259;98474;-76
2023/12/14 06:58:19;;;;;;;47.40;20.50;;;;;;;2.52;100.00;99933.22;105471;1262;101423;-77
2023/12/14 07:01:05;;;;;;;41.10;19.10;;;;;;;2.55;100.00;99936.34;105450;1262;100275;-77
2023/12/14 07:03:50;;;;;;;44.30;21.30;;;;;;;2.56;100.00;99938.52;105367;1262;97961;-76
2023/12/14 07:06:36;;;;;;;49.80;20.90;;;;;;;2.58;100.00;99936.41;105451;1262;97967;-77
2023/12/14 07:09:22;;;;;;;49.90;21.40;;;;;;;2.62;100.00;99937.73;105504;1259;98354;-77
2023/12/14 07:12:08;;;;;;;51.60;21.20;;;;;;;2.65;100.00;99938.12;105505;1262;102661;-77
2023/12/14 07:14:53;;;;;;;45.80;19.70;;;;;;;2.62;100.00;99945.08;105536;1260;99068;-77
2023/12/14 07:17:39;;;;;;;47.70;20.90;;;;;;;2.59;100.00;99946.44;106602;1259;99046;-76
2023/12/14 07:20:25;;;;;;;45.30;20.90;;;;;;;2.58;100.00;99951.16;105521;1261;98024;-77
2023/12/14 07:23:10;;;;;;;45.30;20.70;;;;;;;2.57;100.00;99954.13;105543;1262;98504;-77
2023/12/14 07:25:56;;;;;;;51.40;22.10;;;;;;;2.55;100.00;99955.14;105498;1258;102944;-77
2023/12/14 07:28:41;;;;;;;43.90;19.70;;;;;;;2.53;100.00;99960.51;105446;1262;99188;-76
2023/12/14 07:31:28;;;;;;;51.20;23.00;;;;;;;2.51;100.00;99962.30;105443;1262;99099;-77
2023/12/14 07:34:14;;;;;;;52.40;20.80;;;;;;;2.50;100.00;99963.99;105424;1262;97803;-77
2023/12/14 07:37:00;;;;;;;48.30;20.80;;;;;;;2.50;100.00;99965.89;105506;1262;97970;-77
2023/12/14 07:39:45;;;;;;;48.50;22.00;;;;;;;2.50;100.00;99968.19;105512;1260;102623;-77
2023/12/14 07:42:31;;;;;;;53.20;23.60;;;;;;;2.50;100.00;99971.73;105540;1261;99770;-78
2023/12/14 07:45:17;;;;;;;53.60;21.70;;;;;;;2.51;100.00;99973.00;105979;1261;97911;-77
2023/12/14 07:48:03;;;;;;;47.20;21.00;;;;;;;2.51;100.00;99972.83;105523;1262;99379;-77
2023/12/14 07:50:49;;;;;;;48.60;21.20;;;;;;;2.50;100.00;99974.92;105315;1259;98854;-77
2023/12/14 07:53:35;;;;;;;48.30;20.60;;;;;;;2.49;100.00;99985.22;105487;1260;101391;-76
2023/12/14 07:56:25;;;;;;;48.40;20.60;;;;;;;2.48;100.00;99988.65;105377;1262;99124;-76
2023/12/14 07:59:11;;;;;;;44.80;19.70;;;;;;;2.50;100.00;99996.97;105188;1265;98607;-76
2023/12/14 08:01:56;;;;;;;53.40;23.70;;;;;;;2.49;100.00;100001.77;105519;1260;97969;-76
2023/12/14 08:04:41;;;;;;;49.00;20.10;;;;;;;2.46;100.00;100009.45;105653;1259;99391;-77
2023/12/14 08:07:29;;;;;;;53.20;22.30;;;;;;;2.43;100.00;100012.95;105578;1259;102110;-77
2023/12/14 08:10:14;;;;;;;46.20;19.50;;;;;;;2.41;100.00;100017.38;105648;1262;100350;-83
2023/12/14 08:13:00;;;;;;;49.50;20.40;;;;;;;2.40;100.00;100016.91;106573;1259;98752;-90
2023/12/14 08:15:46;;;;;;;47.00;20.50;;;;;;;2.39;100.00;100019.84;105878;1263;97930;-78
2023/12/14 08:18:32;;;;;;;46.40;20.60;;;;;;;2.37;100.00;100019.55;105307;1264;98057;-78
2023/12/14 08:21:18;;;;;;;50.90;21.30;;;;;;;2.37;100.00;100021.83;105542;1262;101247;-78
2023/12/14 08:24:04;;;;;;;52.70;22.10;;;;;;;2.38;100.00;100020.17;105268;1259;100430;-77
2023/12/14 08:26:50;;;;;;;46.50;20.80;;;;;;;2.37;100.00;100024.27;105420;1259;99081;-78
2023/12/14 08:29:35;;;;;;;49.40;20.50;;;;;;;2.38;100.00;100030.33;105902;1258;97989;-79
2023/12/14 08:32:21;;;;;;;49.30;21.90;;;;;;;2.38;100.00;100039.30;106164;1262;97930;-79
2023/12/14 08:35:07;;;;;;;47.70;20.90;;;;;;;2.40;100.00;100046.88;106107;1258;102117;-79
2023/12/14 08:37:53;;;;;;;52.00;20.00;;;;;;;2.40;100.00;100048.42;106054;1262;99090;-86
2023/12/14 08:40:39;;;;;;;47.20;20.20;;;;;;;2.39;100.00;100054.50;106289;1259;100165;-86
2023/12/14 08:43:25;;;;;;;47.40;21.30;;;;;;;2.38;100.00;100061.71;106360;1259;96633;-78
2023/12/14 08:46:11;;;;;;;50.80;21.80;;;;;;;2.37;100.00;100062.90;105801;1263;98006;-85
2023/12/14 08:49:06;;;;;;;48.70;22.40;;;;;;;2.37;100.00;100068.71;106759;1259;102647;-91
2023/12/14 08:51:53;;;;;;;44.10;17.70;;;;;;;2.39;100.00;100075.30;105890;1262;158421;-89
2023/12/14 08:54:40;;;;;;;46.50;19.90;;;;;;;2.41;100.00;100077.58;106311;1267;99999;-79
2023/12/14 08:57:40;;;;;;;42.00;18.70;;;;;;;2.43;100.00;100082.49;106741;1259;97994;-91
2023/12/14 09:00:57;;;;;;;43.60;19.50;;;;;;;2.43;100.00;100085.04;106488;1260;97881;-84
2023/12/14 09:03:43;;;;;;;47.10;20.00;;;;;;;2.44;100.00;100087.00;106378;1259;102676;-86
2023/12/14 09:06:30;;;;;;;46.50;19.10;;;;;;;2.46;100.00;100087.55;106198;1262;100560;-88
2023/12/14 09:09:19;;;;;;;48.10;20.00;;;;;;;2.49;100.00;100093.96;106227;1262;99154;-77
2023/12/14 09:12:06;;;;;;;42.70;19.00;;;;;;;2.51;100.00;100098.52;105607;1258;98101;-82
2023/12/14 09:14:51;;;;;;;45.80;19.50;;;;;;;2.52;100.00;100100.55;105967;1263;97910;-82
2023/12/14 09:17:36;;;;;;;46.40;20.90;;;;;;;2.54;100.00;100103.65;106406;1258;101425;-78
2023/12/14 09:20:22;;;;;;;44.20;20.30;;;;;;;2.57;100.00;100102.34;105614;1258;99186;-77
2023/12/14 09:23:09;;;;;;;42.50;19.90;;;;;;;2.58;100.00;100102.78;105538;1262;98104;-76
2023/12/14 09:25:55;;;;;;;46.90;19.70;;;;;;;2.57;100.00;100105.08;105607;1261;98852;-76
2023/12/14 09:29:04;;;;;;;37.70;17.00;;;;;;;2.58;100.00;100111.36;106613;1262;97980;-86
2023/12/14 09:31:51;;;;;;;44.00;18.90;;;;;;;2.58;100.00;100114.03;105976;1262;102516;-82
2023/12/14 09:34:38;;;;;;;44.10;19.10;;;;;;;2.58;100.00;100114.53;106442;1258;100149;-87
2023/12/14 09:37:23;;;;;;;42.70;19.60;;;;;;;2.59;100.00;100116.73;106299;1257;99076;-87
2023/12/14 09:40:32;;;;;;;38.80;19.00;;;;;;;2.62;100.00;100121.73;106322;1259;97857;-88
2023/12/14 09:43:17;;;;;;;40.20;17.10;;;;;;;2.65;100.00;100121.11;106404;1258;98054;-79
2023/12/14 09:46:04;;;;;;;43.00;18.90;;;;;;;2.64;100.00;100126.60;105901;1262;101338;-79
2023/12/14 09:48:50;;;;;;;44.20;19.80;;;;;;;2.65;100.00;100126.40;105752;1262;100276;-85
2023/12/14 09:51:37;;;;;;;37.80;17.60;;;;;;;2.65;100.00;100127.03;106296;1258;98794;-85
2023/12/14 09:54:23;;;;;;;37.80;18.10;;;;;;;2.70;100.00;100122.34;106251;1260;98150;-87
2023/12/14 09:57:09;;;;;;;39.90;18.40;;;;;;;2.72;100.00;100124.95;106350;1259;98448;-82
2023/12/14 09:59:55;;;;;;;42.10;18.80;;;;;;;2.76;100.00;100122.27;105278;1259;102773;-75
2023/12/14 10:02:41;;;;;;;43.40;17.90;;;;;;;2.82;100.00;100122.80;105620;1259;100420;-79
2023/12/14 10:05:27;;;;;;;40.70;19.00;;;;;;;2.82;100.00;100127.00;106406;1258;98618;-79
2023/12/14 10:08:13;;;;;;;42.50;17.70;;;;;;;2.80;100.00;100130.33;106010;1259;98953;-78
2023/12/14 10:11:00;;;;;;;46.30;20.50;;;;;;;2.81;100.00;100134.32;105711;1257;98032;-76
2023/12/14 10:13:45;;;;;;;46.00;20.50;;;;;;;2.82;100.00;100133.02;105556;1259;102181;-78
2023/12/14 10:16:33;;;;;;;41.90;20.00;;;;;;;2.83;100.00;100136.95;106505;1257;99291;-88
2023/12/14 10:19:20;;;;;;;44.60;20.80;;;;;;;2.80;100.00;100140.00;106232;1266;98583;-81
2023/12/14 10:22:08;;;;;;;50.10;20.60;;;;;;;2.78;100.00;100143.09;105668;1262;97867;-85
2023/12/14 10:24:56;;;;;;;41.50;18.90;;;;;;;2.77;100.00;100143.55;106268;1259;97821;-79
2023/12/14 10:27:42;;;;;;;45.80;20.90;;;;;;;2.76;100.00;100145.38;106232;1259;102622;-79
2023/12/14 10:30:28;;;;;;;45.50;20.40;;;;;;;2.77;100.00;100146.55;105892;1259;100483;-79
2023/12/14 10:33:15;;;;;;;48.10;21.40;;;;;;;2.77;100.00;100151.30;105798;1262;98109;-83
2023/12/14 10:36:03;;;;;;;46.90;20.30;;;;;;;2.81;100.00;100155.88;105830;1259;99442;-79
2023/12/14 10:38:52;;;;;;;44.90;17.90;;;;;;;2.83;100.00;100164.27;106569;1260;97884;-78
2023/12/14 10:41:37;;;;;;;40.40;18.20;;;;;;;2.84;100.00;100160.09;106489;1259;101367;-79
2023/12/14 10:44:26;;;;;;;37.40;17.60;;;;;;;2.84;100.00;100162.55;105998;1262;98997;-79
2023/12/14 10:47:15;;;;;;;40.80;17.60;;;;;;;2.87;100.00;100161.55;105813;1259;99282;-80
2023/12/14 10:50:02;;;;;;;42.60;18.70;;;;;;;2.89;100.00;100166.83;106337;1259;98039;-80
2023/12/14 10:52:48;;;;;;;39.50;18.50;;;;;;;2.89;100.00;100169.69;106603;1259;98469;-83
2023/12/14 10:55:40;;;;;;;36.30;17.20;;;;;;;2.91;100.00;100173.54;106563;1259;102162;-80
2023/12/14 10:58:25;;;;;;;;;;;;;;;2.91;100.00;100177.08;106372;1258;99062;-79
2023/12/14 11:01:15;;;;;;;43.90;19.40;;;;;;;2.88;100.00;100182.09;105945;1261;97837;-80
2023/12/14 11:04:00;;;;;;;49.30;20.80;;;;;;;2.86;100.00;100185.66;106284;1262;95997;-79
2023/12/14 11:06:48;;;;;;;55.40;23.00;;;;;;;2.84;100.00;100191.83;106089;1259;97881;-80
2023/12/14 11:09:33;;;;;;;53.20;22.10;;;;;;;2.81;100.00;100184.93;107445;1258;101569;-80
2023/12/14 11:12:21;;;;;;;46.40;20.10;;;;;;;2.79;100.00;100185.14;107026;1260;100252;-80
2023/12/14 11:15:09;;;;;;;46.30;19.90;;;;;;;2.78;100.00;100183.13;106786;1258;98794;-80
2023/12/14 11:18:10;;;;;;;45.10;18.90;;;;;;;2.76;100.00;100182.38;106544;1259;97970;-80
2023/12/14 11:21:00;;;;;;;39.70;18.70;;;;;;;2.76;100.00;100185.02;106770;1259;98021;-81
2023/12/14 11:23:49;;;;;;;43.40;18.70;;;;;;;2.76;100.00;100189.05;106876;1259;101367;-79
2023/12/14 11:26:34;;;;;;;45.40;19.00;;;;;;;2.75;100.00;100185.30;107616;1260;99927;-78
2023/12/14 11:29:21;;;;;;;45.30;19.90;;;;;;;2.74;100.00;100186.30;105765;1261;97925;-79
2023/12/14 11:32:07;;;;;;;51.00;21.30;;;;;;;2.75;100.00;100186.03;105981;1259;97970;-79
2023/12/14 11:34:53;;;;;;;44.50;19.60;;;;;;;2.78;100.00;100191.00;105832;1258;97901;-79
2023/12/14 11:37:39;;;;;;;42.50;19.50;;;;;;;2.76;100.00;100196.00;105914;1259;102611;-80
2023/12/14 11:40:26;;;;;;;40.60;18.90;;;;;;;2.77;100.00;100204.54;106326;1260;99378;-80
2023/12/14 11:43:12;;;;;;;39.00;17.50;;;;;;;2.78;100.00;100205.30;106550;1259;98031;-80
2023/12/14 11:45:58;;;;;;;37.50;17.70;;;;;;;2.79;100.00;100207.70;106040;1261;97983;-81
2023/12/14 11:48:46;;;;;;;49.20;18.90;;;;;;;2.80;100.00;100209.66;105982;1259;98424;-79
2023/12/14 11:51:33;;;;;;;48.30;21.20;;;;;;;2.82;100.00;100209.98;106209;1262;102388;-80
2023/12/14 11:54:19;;;;;;;47.70;20.70;;;;;;;2.83;100.00;100215.41;105972;1259;99267;-80
2023/12/14 11:57:04;;;;;;;43.70;18.60;;;;;;;2.82;100.00;100214.91;106657;1262;97906;-80
2023/12/14 11:59:51;;;;;;;38.40;18.50;;;;;;;2.80;100.00;100216.57;106378;1262;96372;-80
2023/12/14 12:02:37;;;;;;;39.60;16.70;;;;;;;2.76;100.00;100213.97;106679;1262;98219;-79
2023/12/14 12:05:35;;;;;;;38.70;18.00;;;;;;;2.73;100.00;100213.50;106580;1259;102678;-79
2023/12/14 12:08:21;;;;;;;34.40;16.80;;;;;;;2.72;100.00;100213.61;106000;1259;99124;-79
2023/12/14 12:11:06;;;;;;;31.30;15.80;;;;;;;2.72;100.00;100215.45;106696;1258;97929;-80
2023/12/14 12:13:52;;;;;;;36.90;16.90;;;;;;;2.72;100.00;100223.02;107440;1260;98048;-79
2023/12/14 12:16:39;;;;;;;39.10;17.60;;;;;;;2.72;100.00;100227.21;106717;1262;98048;-80
2023/12/14 12:19:24;;;;;;;35.20;17.00;;;;;;;2.75;100.00;100228.11;106079;1262;101929;-79
2023/12/14 12:22:10;;;;;;;33.90;17.20;;;;;;;2.80;100.00;100225.07;106192;1258;100472;-79
2023/12/14 12:24:56;;;;;;;31.10;15.40;;;;;;;2.79;100.00;100229.21;106074;1261;98903;-79
2023/12/14 12:27:44;;;;;;;29.50;15.20;;;;;;;2.77;100.00;100236.94;105960;1259;98079;-79
2023/12/14 12:30:29;;;;;;;34.30;16.50;;;;;;;2.77;100.00;100239.09;105957;1259;98633;-80